Time;durP1;ratioP1;P1;durP2;ratioP2;P2;SDS_P1;SDS_P2;PMS_P1;PMS_P2;Temp;Humidity;BMP_temperature;BMP_pressure;BME280_temperature;BME280_humidity;BME280_pressure;Samples;Min_cycle;Max_cycle;Signal;HPM_P1;HPM_P2
2021/07/09 00:02:06;;;;;;;6.13;1.70;;;19.30;99.90;;;;;;5052736;28;20447;-68
2021/07/09 00:04:32;;;;;;;3.42;2.00;;;19.30;99.90;;;;;;5051651;28;20025;-68
2021/07/09 00:06:58;;;;;;;5.18;1.40;;;19.20;99.90;;;;;;5033946;28;20363;-68
2021/07/09 00:09:24;;;;;;;3.90;1.60;;;19.20;99.90;;;;;;5052904;28;20029;-69
2021/07/09 00:11:52;;;;;;;2.70;1.45;;;19.20;99.90;;;;;;5051631;28;20056;-69
2021/07/09 00:14:21;;;;;;;6.72;2.40;;;19.20;99.90;;;;;;5052620;28;20021;-69
2021/07/09 00:16:48;;;;;;;4.85;1.67;;;19.00;99.90;;;;;;5033897;28;20586;-69
2021/07/09 00:19:14;;;;;;;3.63;1.58;;;19.00;99.90;;;;;;5052588;28;20045;-69
2021/07/09 00:21:41;;;;;;;10.23;2.15;;;19.00;99.90;;;;;;5051297;28;20351;-69
2021/07/09 00:24:08;;;;;;;4.70;2.00;;;18.90;99.90;;;;;;5052578;28;20065;-69
2021/07/09 00:26:35;;;;;;;6.32;2.10;;;18.90;99.90;;;;;;5051898;28;20374;-68
2021/07/09 00:29:02;;;;;;;3.10;1.77;;;18.90;99.90;;;;;;5034027;28;20106;-69
2021/07/09 00:31:30;;;;;;;4.25;2.10;;;18.90;99.90;;;;;;5051928;28;20068;-71
2021/07/09 00:33:56;;;;;;;3.10;2.42;;;18.90;99.90;;;;;;5033938;28;20054;-69
2021/07/09 00:36:22;;;;;;;4.40;2.03;;;18.80;99.90;;;;;;5052360;28;20457;-68
2021/07/09 00:38:48;;;;;;;3.25;1.70;;;18.70;99.90;;;;;;5051612;28;20025;-69
2021/07/09 00:41:14;;;;;;;2.35;2.10;;;18.70;99.90;;;;;;5052039;28;20031;-68
2021/07/09 00:43:40;;;;;;;8.40;2.33;;;18.70;99.90;;;;;;5033772;28;20120;-68
2021/07/09 00:46:06;;;;;;;9.38;2.40;;;18.70;99.90;;;;;;5052025;28;20075;-69
2021/07/09 00:48:31;;;;;;;3.50;2.10;;;18.70;99.90;;;;;;5050061;28;20033;-71
2021/07/09 00:50:59;;;;;;;3.97;2.08;;;18.70;99.90;;;;;;5033335;28;20021;-68
2021/07/09 00:53:26;;;;;;;3.80;2.33;;;18.60;99.90;;;;;;5034119;28;20037;-68
2021/07/09 00:55:51;;;;;;;5.70;2.38;;;18.60;99.90;;;;;;5051219;28;20033;-69
2021/07/09 00:58:17;;;;;;;4.40;2.08;;;18.70;99.90;;;;;;5034375;28;20029;-69
2021/07/09 01:00:43;;;;;;;3.75;2.22;;;18.60;99.90;;;;;;5032922;28;20029;-69
2021/07/09 01:03:09;;;;;;;5.32;2.40;;;18.70;99.90;;;;;;5052306;28;20033;-68
2021/07/09 01:05:35;;;;;;;4.53;2.00;;;18.70;99.90;;;;;;5032743;28;20025;-68
2021/07/09 01:08:03;;;;;;;3.88;2.05;;;18.70;99.90;;;;;;5051059;28;20102;-68
2021/07/09 01:10:29;;;;;;;4.28;2.33;;;18.70;99.90;;;;;;5033280;28;20024;-70
2021/07/09 01:12:55;;;;;;;2.83;1.95;;;18.60;99.90;;;;;;5050976;28;20025;-69
2021/07/09 01:15:22;;;;;;;3.85;2.20;;;18.60;99.90;;;;;;5033026;28;20075;-68
2021/07/09 01:17:49;;;;;;;4.53;2.58;;;18.60;99.90;;;;;;5033130;28;20094;-68
2021/07/09 01:20:19;;;;;;;4.05;2.42;;;18.60;99.90;;;;;;5033747;28;20025;-69
2021/07/09 01:22:46;;;;;;;2.90;1.80;;;18.50;99.90;;;;;;5051416;28;20097;-68
2021/07/09 01:25:21;;;;;;;3.72;2.55;;;18.60;99.90;;;;;;5059646;28;20057;-68
2021/07/09 01:27:51;;;;;;;2.88;2.50;;;18.40;99.90;;;;;;5070423;28;20040;-68
2021/07/09 01:30:21;;;;;;;4.95;2.60;;;18.40;99.90;;;;;;5069480;28;20036;-68
2021/07/09 01:32:48;;;;;;;3.05;2.72;;;18.30;99.90;;;;;;5069119;28;20037;-68
2021/07/09 01:35:14;;;;;;;4.70;2.55;;;18.30;99.90;;;;;;5070756;28;20064;-68
2021/07/09 01:37:40;;;;;;;4.30;2.83;;;18.30;99.90;;;;;;5068766;28;20082;-67
2021/07/09 01:40:11;;;;;;;5.30;2.30;;;18.30;99.90;;;;;;5069962;28;20029;-68
2021/07/09 01:42:38;;;;;;;4.93;2.80;;;18.10;99.90;;;;;;5070413;28;20032;-68
2021/07/09 01:45:04;;;;;;;5.15;3.15;;;18.20;99.90;;;;;;5070035;28;20359;-68
2021/07/09 01:47:30;;;;;;;4.88;3.33;;;18.10;99.90;;;;;;5069827;28;20178;-68
2021/07/09 01:49:58;;;;;;;8.18;2.72;;;18.20;99.90;;;;;;5070114;28;20082;-69
2021/07/09 01:52:26;;;;;;;6.10;3.10;;;18.20;99.90;;;;;;5070794;28;20070;-68
2021/07/09 01:54:53;;;;;;;3.88;2.45;;;18.20;99.90;;;;;;5069046;28;20122;-67
2021/07/09 01:57:19;;;;;;;8.68;2.83;;;18.30;99.90;;;;;;5070703;28;20159;-68
2021/07/09 01:59:45;;;;;;;4.22;2.72;;;18.30;99.90;;;;;;5068460;28;20094;-70
2021/07/09 02:02:11;;;;;;;9.95;2.97;;;18.40;99.90;;;;;;5069474;28;20119;-68
2021/07/09 02:04:55;;;;;;;5.05;3.17;;;18.50;99.90;;;;;;5070347;28;20032;-69
2021/07/09 02:07:22;;;;;;;5.75;2.17;;;18.50;99.90;;;;;;5068978;28;20135;-68
2021/07/09 02:09:52;;;;;;;3.20;1.98;;;18.60;99.90;;;;;;5069701;28;20028;-68
2021/07/09 02:12:20;;;;;;;2.72;2.33;;;18.60;99.90;;;;;;5070188;28;20043;-68
2021/07/09 02:14:46;;;;;;;2.45;2.25;;;18.70;99.90;;;;;;5069853;28;20051;-69
2021/07/09 02:17:14;;;;;;;2.67;1.88;;;18.60;99.90;;;;;;5070370;28;20074;-68
2021/07/09 02:19:42;;;;;;;3.30;2.33;;;18.70;99.90;;;;;;5068309;28;20074;-68
2021/07/09 02:22:14;;;;;;;2.75;2.40;;;18.60;99.90;;;;;;5068996;28;20032;-68
2021/07/09 02:24:44;;;;;;;4.55;2.42;;;18.60;99.90;;;;;;5058422;28;20119;-68
2021/07/09 02:27:10;;;;;;;3.07;2.33;;;18.60;99.90;;;;;;5027820;28;20037;-68
2021/07/09 02:29:36;;;;;;;2.55;2.10;;;18.60;99.90;;;;;;5027770;28;20346;-70
2021/07/09 02:32:05;;;;;;;3.35;2.38;;;18.50;99.90;;;;;;5011212;28;20042;-68
2021/07/09 02:34:31;;;;;;;3.50;2.95;;;18.60;99.90;;;;;;5011321;28;20037;-68
2021/07/09 02:36:57;;;;;;;2.55;2.33;;;18.50;99.90;;;;;;5010467;28;20221;-68
2021/07/09 02:39:27;;;;;;;4.97;2.67;;;18.50;99.90;;;;;;5011688;28;20103;-68
2021/07/09 02:41:57;;;;;;;4.22;3.33;;;18.40;99.90;;;;;;5010401;28;20048;-68
2021/07/09 02:44:23;;;;;;;5.68;2.78;;;18.30;99.90;;;;;;5011372;28;20025;-68
2021/07/09 02:46:50;;;;;;;4.18;2.78;;;18.30;99.90;;;;;;5027077;28;20041;-68
2021/07/09 02:49:16;;;;;;;6.28;2.42;;;18.40;99.90;;;;;;5011291;28;20059;-68
2021/07/09 02:51:43;;;;;;;7.70;3.17;;;18.40;99.90;;;;;;5010041;28;20037;-68
2021/07/09 02:54:09;;;;;;;3.58;2.60;;;18.50;99.90;;;;;;5010839;28;20199;-68
2021/07/09 02:56:34;;;;;;;5.43;2.97;;;18.40;99.90;;;;;;5011203;28;20498;-68
2021/07/09 02:59:00;;;;;;;9.25;3.10;;;18.50;99.90;;;;;;5028305;28;20173;-69
2021/07/09 03:01:26;;;;;;;2.53;2.33;;;18.60;99.90;;;;;;5032175;28;20037;-68
2021/07/09 03:03:52;;;;;;;5.45;2.47;;;18.60;99.90;;;;;;5031041;28;20025;-69
2021/07/09 03:06:19;;;;;;;3.78;2.50;;;18.60;99.90;;;;;;5031947;28;20037;-69
2021/07/09 03:08:45;;;;;;;4.20;2.78;;;18.50;99.90;;;;;;5048740;28;20029;-68
2021/07/09 03:11:12;;;;;;;7.57;3.38;;;18.60;99.90;;;;;;5051256;28;20032;-68
2021/07/09 03:13:37;;;;;;;3.30;2.83;;;18.60;99.90;;;;;;5035707;28;20094;-69
2021/07/09 03:16:04;;;;;;;4.35;3.13;;;18.50;99.90;;;;;;5035398;28;20464;-68
2021/07/09 03:18:30;;;;;;;5.70;3.65;;;18.50;99.90;;;;;;5035911;28;20083;-68
2021/07/09 03:20:56;;;;;;;4.68;2.78;;;18.50;99.90;;;;;;5052894;28;20033;-69
2021/07/09 03:23:21;;;;;;;3.30;3.00;;;18.50;99.90;;;;;;5036041;28;20032;-68
2021/07/09 03:25:47;;;;;;;3.25;2.85;;;18.50;99.90;;;;;;5071620;28;20049;-68
2021/07/09 03:28:13;;;;;;;4.68;3.70;;;18.40;99.90;;;;;;5072500;28;20059;-68
2021/07/09 03:30:39;;;;;;;4.22;3.28;;;18.40;99.90;;;;;;5073074;28;20056;-69
2021/07/09 03:33:05;;;;;;;5.05;2.80;;;18.30;99.90;;;;;;5083778;28;20093;-70
2021/07/09 03:35:31;;;;;;;4.05;3.08;;;18.30;99.90;;;;;;5073175;28;20041;-68
2021/07/09 03:37:57;;;;;;;5.47;2.50;;;18.30;99.90;;;;;;5072650;28;20367;-68
2021/07/09 03:40:22;;;;;;;3.38;2.95;;;18.30;99.90;;;;;;5071729;28;20032;-68
2021/07/09 03:42:48;;;;;;;5.57;3.25;;;18.20;99.90;;;;;;5071113;28;20060;-68
2021/07/09 03:45:14;;;;;;;4.95;2.45;;;18.30;99.90;;;;;;5073111;28;20486;-68
2021/07/09 03:47:39;;;;;;;4.68;3.67;;;18.30;99.90;;;;;;5072924;28;20055;-69
2021/07/09 03:50:06;;;;;;;8.05;3.38;;;18.30;99.90;;;;;;5072969;28;20036;-68
2021/07/09 03:52:32;;;;;;;6.68;3.28;;;18.40;99.90;;;;;;5071844;28;20167;-68
2021/07/09 03:54:58;;;;;;;10.32;3.30;;;18.30;99.90;;;;;;5071107;28;20063;-69
2021/07/09 03:57:24;;;;;;;3.42;3.05;;;18.30;99.90;;;;;;5071890;28;20060;-68
2021/07/09 03:59:50;;;;;;;6.38;3.13;;;18.30;99.90;;;;;;5072306;28;20112;-68
2021/07/09 04:02:15;;;;;;;4.40;2.83;;;18.30;99.90;;;;;;5072589;28;20041;-70
2021/07/09 04:04:41;;;;;;;3.60;2.45;;;18.20;99.90;;;;;;5071266;28;20051;-69
2021/07/09 04:07:06;;;;;;;4.30;2.67;;;18.20;99.90;;;;;;5070458;28;20492;-68
2021/07/09 04:09:32;;;;;;;5.68;2.80;;;18.30;99.90;;;;;;5072137;28;20031;-68
2021/07/09 04:11:58;;;;;;;5.00;3.25;;;18.30;99.90;;;;;;5070086;28;20457;-68
2021/07/09 04:14:24;;;;;;;3.85;2.72;;;18.40;99.90;;;;;;5072160;28;20033;-69
2021/07/09 04:16:49;;;;;;;5.05;3.53;;;18.30;99.90;;;;;;5070278;28;20021;-69
2021/07/09 04:19:15;;;;;;;6.70;2.80;;;18.40;99.90;;;;;;5072290;28;20107;-69
2021/07/09 04:21:41;;;;;;;3.67;2.95;;;18.30;99.90;;;;;;5072065;28;20068;-68
2021/07/09 04:24:07;;;;;;;7.60;3.17;;;18.40;99.90;;;;;;5070434;28;20060;-69
2021/07/09 04:26:34;;;;;;;8.77;4.70;;;18.40;99.90;;;;;;5070694;28;20086;-68
2021/07/09 04:29:00;;;;;;;6.28;4.47;;;18.40;99.90;;;;;;5070259;28;20025;-69
2021/07/09 04:31:25;;;;;;;6.50;3.47;;;18.40;99.90;;;;;;5070381;28;20369;-68
2021/07/09 04:33:51;;;;;;;3.97;3.08;;;18.30;99.90;;;;;;5070937;28;20093;-68
2021/07/09 04:36:17;;;;;;;3.33;2.83;;;18.30;99.90;;;;;;5071827;28;20375;-69
2021/07/09 04:38:43;;;;;;;6.35;3.42;;;18.50;99.90;;;;;;5071585;28;20434;-70
2021/07/09 04:41:09;;;;;;;3.80;2.85;;;18.40;99.90;;;;;;5070001;28;20048;-70
2021/07/09 04:43:38;;;;;;;5.30;3.70;;;18.40;99.90;;;;;;5071016;28;20398;-68
2021/07/09 04:46:07;;;;;;;6.28;3.47;;;18.40;99.90;;;;;;5070277;28;20047;-68
2021/07/09 04:48:33;;;;;;;5.82;3.80;;;18.40;99.90;;;;;;5070538;28;20028;-68
2021/07/09 04:51:01;;;;;;;6.55;3.53;;;18.40;99.90;;;;;;5069991;28;20460;-69
2021/07/09 04:53:27;;;;;;;4.72;3.05;;;18.40;99.90;;;;;;5070849;28;20086;-69
2021/07/09 04:55:53;;;;;;;4.18;3.22;;;18.40;99.90;;;;;;5069072;28;20051;-70
2021/07/09 04:58:19;;;;;;;4.05;3.65;;;18.40;99.90;;;;;;5071503;28;20029;-69
2021/07/09 05:00:44;;;;;;;5.28;3.60;;;18.50;99.90;;;;;;5069998;28;20024;-70
2021/07/09 05:03:10;;;;;;;4.75;3.50;;;18.50;99.90;;;;;;5069889;28;20039;-68
2021/07/09 05:05:36;;;;;;;5.45;4.00;;;18.50;99.90;;;;;;5070077;28;20029;-68
2021/07/09 05:08:02;;;;;;;3.95;3.38;;;18.50;99.90;;;;;;5069501;28;20122;-70
2021/07/09 05:10:28;;;;;;;5.80;3.67;;;18.50;99.90;;;;;;5071291;28;20098;-70
2021/07/09 05:12:54;;;;;;;4.18;3.78;;;18.50;99.90;;;;;;5069524;28;20040;-68
2021/07/09 05:15:20;;;;;;;8.18;3.22;;;18.50;99.90;;;;;;5071152;28;20127;-69
2021/07/09 05:17:45;;;;;;;4.30;3.22;;;18.60;99.90;;;;;;5070553;28;20488;-69
2021/07/09 05:20:12;;;;;;;6.28;3.92;;;18.60;99.90;;;;;;5071125;28;20090;-69
2021/07/09 05:22:38;;;;;;;3.45;3.15;;;18.60;99.90;;;;;;5069850;28;20036;-69
2021/07/09 05:25:04;;;;;;;5.28;3.55;;;18.60;99.90;;;;;;5068659;28;20124;-68
2021/07/09 05:27:31;;;;;;;4.43;3.65;;;18.60;99.90;;;;;;5070892;28;20107;-68
2021/07/09 05:29:57;;;;;;;7.57;3.22;;;18.60;99.90;;;;;;5070265;28;20024;-68
2021/07/09 05:32:25;;;;;;;4.40;4.00;;;18.60;99.90;;;;;;5069470;28;20120;-68
2021/07/09 05:34:51;;;;;;;5.50;3.97;;;18.50;99.90;;;;;;5068096;28;20021;-69
2021/07/09 05:37:17;;;;;;;7.35;4.70;;;18.50;99.90;;;;;;5069497;28;20051;-68
2021/07/09 05:39:43;;;;;;;4.25;3.78;;;18.50;99.90;;;;;;5069404;28;20025;-70
2021/07/09 05:42:10;;;;;;;9.90;4.60;;;18.60;99.90;;;;;;5068278;28;20589;-68
2021/07/09 05:44:35;;;;;;;10.43;4.22;;;18.60;99.90;;;;;;5068572;28;20028;-68
2021/07/09 05:47:02;;;;;;;5.53;4.78;;;18.60;99.90;;;;;;5067458;28;20381;-69
2021/07/09 05:49:28;;;;;;;8.35;5.45;;;18.60;99.90;;;;;;5069178;28;20119;-68
2021/07/09 05:51:54;;;;;;;6.78;5.72;;;18.60;99.90;;;;;;5067843;28;20140;-68
2021/07/09 05:54:19;;;;;;;22.40;15.00;;;18.50;99.90;;;;;;5069010;28;20446;-69
2021/07/09 05:56:45;;;;;;;69.40;49.45;;;18.50;99.90;;;;;;5069059;28;20028;-68
2021/07/09 05:59:11;;;;;;;58.67;41.45;;;18.60;99.90;;;;;;5069328;28;20036;-68
2021/07/09 06:01:36;;;;;;;40.70;27.63;;;18.50;99.90;;;;;;5069257;28;20363;-68
2021/07/09 06:04:02;;;;;;;17.88;12.13;;;18.50;99.90;;;;;;5069421;28;20102;-68
2021/07/09 06:06:28;;;;;;;16.85;11.88;;;18.60;99.90;;;;;;5069093;28;20482;-68
2021/07/09 06:08:53;;;;;;;11.77;8.63;;;18.60;99.90;;;;;;5069264;28;20372;-68
2021/07/09 06:11:19;;;;;;;15.68;9.45;;;18.50;99.90;;;;;;5069343;28;20058;-68
2021/07/09 06:13:45;;;;;;;18.90;13.60;;;18.60;99.90;;;;;;5068778;28;20032;-68
2021/07/09 06:16:10;;;;;;;13.07;9.38;;;18.70;99.90;;;;;;5068024;28;20043;-70
2021/07/09 06:18:36;;;;;;;13.43;9.63;;;18.70;99.90;;;;;;5068936;28;20025;-68
2021/07/09 06:21:02;;;;;;;8.77;6.10;;;18.70;99.90;;;;;;5067900;28;20133;-69
2021/07/09 06:23:28;;;;;;;9.48;6.00;;;18.70;99.90;;;;;;5069403;28;20412;-69
2021/07/09 06:25:55;;;;;;;10.00;7.03;;;18.70;99.90;;;;;;5031005;28;20031;-70
2021/07/09 06:28:21;;;;;;;13.25;10.65;;;18.70;99.90;;;;;;5049985;28;20057;-68
2021/07/09 06:30:46;;;;;;;9.90;6.97;;;18.80;99.90;;;;;;5048499;28;20416;-68
2021/07/09 06:33:12;;;;;;;12.10;8.98;;;18.90;99.90;;;;;;5031192;28;20045;-69
2021/07/09 06:35:39;;;;;;;11.68;9.60;;;19.00;99.90;;;;;;5031902;28;20055;-69
2021/07/09 06:38:06;;;;;;;6.93;6.28;;;19.10;99.90;;;;;;5049155;28;20032;-69
2021/07/09 06:40:32;;;;;;;8.07;5.68;;;19.20;99.90;;;;;;5049433;28;20123;-69
2021/07/09 06:42:58;;;;;;;7.75;6.43;;;19.10;99.90;;;;;;5049277;28;20032;-68
2021/07/09 06:45:24;;;;;;;9.77;6.68;;;19.20;99.90;;;;;;5050275;28;20029;-70
2021/07/09 06:47:49;;;;;;;9.60;7.20;;;19.10;99.90;;;;;;5035267;28;20025;-72
2021/07/09 06:50:17;;;;;;;10.80;7.50;;;19.30;99.90;;;;;;5034795;28;20412;-70
2021/07/09 06:52:43;;;;;;;9.20;6.25;;;19.30;99.90;;;;;;5035453;28;20072;-68
2021/07/09 06:55:13;;;;;;;6.63;5.85;;;19.40;99.90;;;;;;5052477;28;20060;-69
2021/07/09 06:57:39;;;;;;;7.95;6.00;;;19.50;99.90;;;;;;5035602;28;20098;-70
2021/07/09 07:00:06;;;;;;;8.35;6.55;;;19.40;99.90;;;;;;5052684;28;20108;-69
2021/07/09 07:02:33;;;;;;;6.93;5.97;;;19.50;99.90;;;;;;5053564;28;20040;-69
2021/07/09 07:05:00;;;;;;;7.38;6.10;;;19.50;99.90;;;;;;5034405;28;20523;-72
2021/07/09 07:07:25;;;;;;;9.10;6.70;;;19.60;99.90;;;;;;5053511;28;20032;-68
2021/07/09 07:09:51;;;;;;;14.73;6.75;;;19.60;99.90;;;;;;5034707;28;20029;-72
2021/07/09 07:12:17;;;;;;;8.23;5.70;;;19.60;99.90;;;;;;5034376;28;20068;-70
2021/07/09 07:14:42;;;;;;;8.45;6.30;;;19.50;99.90;;;;;;5035143;28;20021;-70
2021/07/09 07:17:09;;;;;;;7.57;5.80;;;19.50;99.90;;;;;;5052868;28;20025;-72
2021/07/09 07:19:35;;;;;;;11.68;6.28;;;19.50;99.90;;;;;;5035646;28;20029;-69
2021/07/09 07:22:02;;;;;;;6.97;6.35;;;19.60;99.90;;;;;;5034834;28;20079;-69
2021/07/09 07:24:29;;;;;;;7.50;6.25;;;19.60;99.90;;;;;;5049527;28;20121;-70
2021/07/09 07:26:55;;;;;;;7.03;6.05;;;19.60;99.90;;;;;;5071393;28;20052;-72
2021/07/09 07:29:21;;;;;;;10.25;7.63;;;19.60;99.90;;;;;;5071603;28;20109;-69
2021/07/09 07:31:47;;;;;;;8.15;6.43;;;19.40;99.90;;;;;;5071315;28;20033;-70
2021/07/09 07:34:12;;;;;;;7.28;6.22;;;19.40;99.90;;;;;;5078887;28;20119;-68
2021/07/09 07:36:38;;;;;;;11.77;6.22;;;19.50;99.90;;;;;;5071705;28;20533;-69
2021/07/09 07:39:04;;;;;;;7.65;5.82;;;19.50;99.90;;;;;;5071066;28;20123;-69
2021/07/09 07:41:29;;;;;;;7.55;6.43;;;19.40;99.90;;;;;;5071564;28;20419;-70
2021/07/09 07:43:55;;;;;;;9.45;6.63;;;19.40;99.90;;;;;;5072434;28;20089;-70
2021/07/09 07:46:21;;;;;;;11.23;6.38;;;19.40;99.90;;;;;;5071888;28;20099;-68
2021/07/09 07:48:46;;;;;;;7.10;6.40;;;19.40;99.90;;;;;;5073340;28;20025;-70
2021/07/09 07:51:12;;;;;;;8.27;6.05;;;19.40;99.90;;;;;;5070869;28;20800;-68
2021/07/09 07:53:39;;;;;;;8.23;6.65;;;19.40;99.90;;;;;;5071338;28;20509;-67
2021/07/09 07:56:05;;;;;;;11.52;7.13;;;19.30;99.90;;;;;;5071831;28;20474;-68
2021/07/09 07:58:31;;;;;;;11.57;6.55;;;19.30;99.90;;;;;;5072943;28;20028;-70
2021/07/09 08:00:58;;;;;;;7.13;5.40;;;19.30;99.90;;;;;;5070825;28;20509;-71
2021/07/09 08:03:24;;;;;;;7.30;5.40;;;19.60;99.90;;;;;;5072093;28;20418;-71
2021/07/09 08:05:50;;;;;;;8.93;7.15;;;19.80;99.90;;;;;;5073555;28;20059;-71
2021/07/09 08:08:16;;;;;;;9.90;7.03;;;19.80;99.90;;;;;;5069843;28;20025;-70
2021/07/09 08:10:42;;;;;;;8.40;5.95;;;19.80;99.90;;;;;;5072022;28;20378;-69
2021/07/09 08:13:07;;;;;;;9.13;7.18;;;19.90;99.90;;;;;;5071025;28;20439;-68
2021/07/09 08:15:33;;;;;;;10.10;8.30;;;19.80;99.90;;;;;;5069692;28;20465;-71
2021/07/09 08:17:58;;;;;;;10.73;7.72;;;19.90;99.90;;;;;;5070068;28;20056;-68
2021/07/09 08:20:24;;;;;;;8.77;6.63;;;19.80;99.90;;;;;;5070407;28;20024;-68
2021/07/09 08:22:50;;;;;;;7.88;6.38;;;19.80;99.90;;;;;;5079467;28;20042;-69
2021/07/09 08:25:16;;;;;;;12.45;8.43;;;20.00;99.90;;;;;;5087702;28;20044;-70
2021/07/09 08:27:42;;;;;;;9.43;8.48;;;20.20;99.90;;;;;;5090104;28;20050;-70
2021/07/09 08:30:09;;;;;;;26.60;11.40;;;20.10;99.90;;;;;;5088201;28;20032;-69
2021/07/09 08:32:35;;;;;;;15.13;8.50;;;20.30;99.90;;;;;;5073263;28;20138;-68
2021/07/09 08:35:02;;;;;;;17.00;8.68;;;20.30;99.90;;;;;;5070605;28;20036;-66
2021/07/09 08:37:28;;;;;;;10.38;8.32;;;20.40;99.90;;;;;;5068843;28;20101;-54
2021/07/09 08:39:54;;;;;;;9.02;6.53;;;20.20;99.90;;;;;;5070455;28;20450;-60
2021/07/09 08:42:20;;;;;;;9.07;6.63;;;20.30;99.90;;;;;;5071851;28;20438;-53
2021/07/09 08:44:45;;;;;;;9.20;5.50;;;20.50;99.90;;;;;;5072796;28;20054;-56
2021/07/09 08:47:12;;;;;;;10.48;8.02;;;20.80;99.90;;;;;;5079678;28;20035;-52
2021/07/09 08:49:40;;;;;;;10.50;7.05;;;20.70;99.90;;;;;;5075078;28;20028;-54
2021/07/09 08:52:07;;;;;;;13.15;7.50;;;20.80;99.90;;;;;;5080079;28;20032;-54
2021/07/09 08:54:33;;;;;;;8.27;6.72;;;21.00;99.90;;;;;;5076111;28;20177;-54
2021/07/09 08:56:58;;;;;;;10.60;8.15;;;21.10;99.90;;;;;;5083961;28;20054;-54
2021/07/09 08:59:24;;;;;;;12.32;6.63;;;21.00;99.90;;;;;;5077994;28;20346;-52
2021/07/09 09:01:58;;;;;;;9.90;8.90;;;21.10;99.90;;;;;;5081885;28;20139;-53
2021/07/09 09:04:31;;;;;;;10.73;8.38;;;21.10;99.90;;;;;;5087791;28;20028;-55
2021/07/09 09:07:06;;;;;;;10.57;9.40;;;21.10;99.90;;;;;;5091455;28;20033;-61
2021/07/09 09:09:34;;;;;;;10.13;9.07;;;20.80;99.90;;;;;;5091136;28;20024;-54
2021/07/09 09:12:14;;;;;;;13.82;9.63;;;20.50;99.90;;;;;;5075710;28;20087;-61
2021/07/09 09:14:42;;;;;;;8.63;7.82;;;20.50;99.90;;;;;;5067334;28;20342;-54
2021/07/09 09:17:37;;;;;;;14.07;8.90;;;20.70;99.90;;;;;;5068180;28;20429;-54
2021/07/09 09:20:11;;;;;;;10.10;7.90;;;20.70;99.90;;;;;;5071815;28;20032;-57
2021/07/09 09:22:49;;;;;;;9.75;6.53;;;20.90;99.90;;;;;;5075815;28;20036;-52
2021/07/09 09:25:20;;;;;;;10.02;7.07;;;21.20;99.90;;;;;;5070851;28;20045;-53
2021/07/09 09:28:08;;;;;;;11.18;9.98;;;21.20;99.90;;;;;;5074956;28;20508;-55
2021/07/09 09:30:36;;;;;;;10.38;8.63;;;21.00;99.90;;;;;;5075020;28;20063;-51
2021/07/09 09:33:06;;;;;;;12.60;8.27;;;20.90;99.90;;;;;;5084033;28;20485;-54
2021/07/09 09:35:43;;;;;;;18.38;11.23;;;20.80;99.90;;;;;;5081024;28;20048;-53
2021/07/09 09:38:14;;;;;;;11.10;8.73;;;20.80;99.90;;;;;;5080018;28;20020;-54
2021/07/09 09:40:43;;;;;;;14.95;10.35;;;20.90;99.90;;;;;;5078436;28;20028;-55
2021/07/09 09:43:21;;;;;;;13.40;9.00;;;20.80;99.90;;;;;;5085379;28;20118;-52
2021/07/09 09:46:02;;;;;;;17.48;9.50;;;20.80;99.90;;;;;;5071194;28;20386;-54
2021/07/09 09:48:42;;;;;;;;;;;20.90;99.90;;;;;;5067269;28;20115;-54
2021/07/09 09:51:38;;;;;;;11.27;9.55;;;20.90;99.90;;;;;;5066049;28;19942;-54
2021/07/09 09:54:09;;;;;;;13.55;8.60;;;20.80;99.90;;;;;;5045287;28;20142;-53
2021/07/09 09:56:36;;;;;;;11.75;9.73;;;20.90;99.90;;;;;;5068785;28;20024;-53
2021/07/09 09:59:22;;;;;;;10.90;9.55;;;20.80;99.90;;;;;;5066233;28;20071;-53
2021/07/09 10:01:50;;;;;;;10.05;8.90;;;20.80;99.90;;;;;;5068815;28;20043;-54
2021/07/09 10:04:17;;;;;;;10.07;8.77;;;20.60;99.90;;;;;;5066076;28;20035;-70
2021/07/09 10:06:44;;;;;;;10.40;8.55;;;20.60;99.90;;;;;;5067075;28;20032;-70
2021/07/09 10:09:14;;;;;;;8.98;8.07;;;20.40;99.90;;;;;;5067900;28;20137;-71
2021/07/09 10:11:40;;;;;;;10.57;8.70;;;20.40;99.90;;;;;;5066944;28;20112;-70
2021/07/09 10:14:15;;;;;;;13.27;9.18;;;20.40;99.90;;;;;;5065614;28;20362;-69
2021/07/09 10:16:43;;;;;;;12.23;9.32;;;20.40;99.90;;;;;;5066678;28;20036;-71
2021/07/09 10:19:11;;;;;;;11.50;8.40;;;20.50;99.90;;;;;;5067900;28;20127;-72
2021/07/09 10:21:38;;;;;;;12.73;7.97;;;20.60;99.90;;;;;;5074709;28;20032;-71
2021/07/09 10:24:09;;;;;;;10.88;9.07;;;20.50;99.90;;;;;;5082156;28;20481;-71
2021/07/09 10:26:42;;;;;;;9.27;7.70;;;20.60;99.90;;;;;;5059205;28;20391;-71
2021/07/09 10:29:12;;;;;;;11.93;8.98;;;20.70;99.90;;;;;;5047598;28;20041;-70
2021/07/09 10:31:40;;;;;;;9.65;8.65;;;20.70;99.90;;;;;;5029946;28;20469;-71
2021/07/09 10:34:24;;;;;;;13.75;9.75;;;20.60;99.90;;;;;;5046852;28;20060;-71
2021/07/09 10:37:07;;;;;;;12.48;9.00;;;20.70;99.90;;;;;;5029730;28;20142;-72
2021/07/09 10:39:35;;;;;;;10.68;8.88;;;20.60;99.90;;;;;;5044995;28;20061;-69
2021/07/09 10:42:26;;;;;;;10.75;8.88;;;20.60;99.90;;;;;;5049124;28;20583;-73
2021/07/09 10:45:08;;;;;;;10.23;9.10;;;20.70;99.90;;;;;;5049958;28;20032;-72
2021/07/09 10:47:45;;;;;;;13.93;8.35;;;20.70;99.90;;;;;;5049942;28;20063;-71
2021/07/09 10:50:21;;;;;;;10.25;9.25;;;20.80;99.90;;;;;;5047584;28;20106;-71
2021/07/09 10:52:52;;;;;;;10.65;7.78;;;21.00;99.90;;;;;;5029516;28;20109;-71
2021/07/09 10:55:29;;;;;;;15.50;8.57;;;21.20;99.90;;;;;;5029181;28;20644;-71
2021/07/09 10:58:07;;;;;;;9.73;8.05;;;21.40;99.90;;;;;;5048938;28;20121;-68
2021/07/09 11:00:45;;;;;;;10.68;7.40;;;21.70;99.90;;;;;;5032376;28;20474;-69
2021/07/09 11:03:20;;;;;;;14.38;7.88;;;21.70;99.90;;;;;;5030970;28;20075;-68
2021/07/09 11:05:49;;;;;;;22.30;13.32;;;21.90;99.90;;;;;;5031285;28;20037;-68
2021/07/09 11:08:29;;;;;;;16.77;7.50;;;22.10;99.90;;;;;;5048907;28;20106;-69
2021/07/09 11:11:05;;;;;;;8.57;6.60;;;22.10;99.90;;;;;;5031158;28;20120;-68
2021/07/09 11:13:40;;;;;;;12.93;7.32;;;22.10;99.90;;;;;;5031224;28;20095;-69
2021/07/09 11:16:30;;;;;;;11.23;6.25;;;22.10;99.90;;;;;;5030572;28;20025;-68
2021/07/09 11:19:04;;;;;;;14.40;6.28;;;22.20;99.90;;;;;;5031708;28;20026;-69
2021/07/09 11:21:29;;;;;;;20.77;12.73;;;22.20;99.90;;;;;;5031110;28;20033;-70
2021/07/09 11:23:59;;;;;;;11.38;6.18;;;22.20;99.90;;;;;;5036133;28;20048;-69
2021/07/09 11:26:54;;;;;;;13.20;8.18;;;22.20;99.90;;;;;;5060725;28;20178;-69
2021/07/09 11:29:22;;;;;;;12.68;7.68;;;22.20;99.90;;;;;;5066263;28;20554;-70
2021/07/09 11:31:50;;;;;;;20.77;11.40;;;22.20;99.90;;;;;;5068764;28;20073;-69
2021/07/09 11:34:17;;;;;;;14.48;9.60;;;22.10;99.90;;;;;;5070730;28;20028;-69
2021/07/09 11:36:50;;;;;;;16.60;10.55;;;22.20;99.90;;;;;;5073278;28;20096;-70
2021/07/09 11:39:24;;;;;;;27.48;16.73;;;22.20;99.90;;;;;;5073109;28;20076;-69
2021/07/09 11:41:57;;;;;;;17.13;11.65;;;22.30;99.90;;;;;;5072592;28;20420;-70
2021/07/09 11:44:27;;;;;;;8.98;4.88;;;22.20;99.90;;;;;;5072907;28;20028;-70
2021/07/09 11:46:57;;;;;;;10.48;7.25;;;22.50;99.90;;;;;;5076887;28;20090;-70
2021/07/09 11:49:28;;;;;;;6.38;4.47;;;22.50;99.90;;;;;;5079502;28;20474;-71
2021/07/09 11:52:00;;;;;;;7.75;5.40;;;22.40;99.90;;;;;;5071715;28;20055;-69
2021/07/09 11:54:29;;;;;;;9.45;4.85;;;22.40;99.90;;;;;;5071957;28;20446;-71
2021/07/09 11:57:03;;;;;;;8.82;5.05;;;22.40;99.90;;;;;;5073376;28;20032;-70
2021/07/09 11:59:30;;;;;;;13.82;9.40;;;22.60;99.90;;;;;;5071716;28;20082;-70
2021/07/09 12:02:00;;;;;;;10.43;5.45;;;22.80;99.90;;;;;;5073119;28;20037;-70
2021/07/09 12:04:40;;;;;;;6.28;4.50;;;22.90;99.90;;;;;;5072292;28;20164;-71
2021/07/09 12:07:36;;;;;;;11.40;3.65;;;23.00;99.90;;;;;;5072220;28;20028;-71
2021/07/09 12:10:08;;;;;;;6.72;4.35;;;23.20;99.90;;;;;;5056131;28;20086;-70
2021/07/09 12:12:42;;;;;;;13.13;8.07;;;23.30;99.90;;;;;;5071630;28;20086;-70
2021/07/09 12:15:16;;;;;;;11.85;7.20;;;23.40;99.90;;;;;;5071426;28;20028;-71
2021/07/09 12:17:48;;;;;;;6.22;4.18;;;23.60;99.90;;;;;;5072682;28;20151;-70
2021/07/09 12:20:16;;;;;;;4.30;3.85;;;23.80;99.70;;;;;;5071601;28;20025;-70
2021/07/09 12:22:43;;;;;;;10.18;4.13;;;23.90;99.10;;;;;;5072431;28;20054;-70
2021/07/09 12:25:24;;;;;;;13.10;7.47;;;24.10;98.70;;;;;;5070113;28;20102;-71
2021/07/09 12:27:55;;;;;;;9.68;5.07;;;24.20;98.80;;;;;;5070620;28;20420;-70
2021/07/09 12:30:24;;;;;;;13.20;8.60;;;24.20;98.00;;;;;;5070162;28;20060;-71
2021/07/09 12:32:59;;;;;;;20.50;11.52;;;24.20;98.40;;;;;;5072439;28;20413;-71
2021/07/09 12:35:26;;;;;;;11.85;6.72;;;24.30;97.90;;;;;;5071515;28;20029;-70
2021/07/09 12:38:19;;;;;;;39.55;19.48;;;24.40;98.10;;;;;;5071983;28;20082;-72
2021/07/09 12:40:47;;;;;;;15.40;5.95;;;24.30;97.90;;;;;;5070146;28;20036;-70
2021/07/09 12:43:15;;;;;;;7.18;4.80;;;24.20;97.50;;;;;;5088834;28;20487;-71
2021/07/09 12:45:43;;;;;;;10.20;6.90;;;23.90;97.80;;;;;;5090695;28;20031;-72
2021/07/09 12:48:10;;;;;;;16.35;8.85;;;24.00;98.40;;;;;;5091333;28;20020;-71
2021/07/09 12:50:41;;;;;;;6.35;5.00;;;24.10;98.50;;;;;;5091688;28;20322;-70